Terminal Aerodrome Forecast
Issued by NWS

Home | Current Version | Previous Version | Graphics & Text | Print | Product List | Glossary On
Versions: 1 2 3 4 5 6 7 8 9 10 11 12 13 14 15 16
000
FTUS43 KICT 211000 AAB
TAFHUT
TAF AMD
KHUT 211100Z 2111/2206 00000KT 1/2SM FG VV002
     FM211300 00000KT 2SM BR OVC008
      TEMPO 2113/2115 5SM BR OVC013
     FM211500 34005KT P6SM OVC015
     FM211700 36007KT P6SM BKN040
     FM212000 36007KT P6SM BKN070=

USA.gov is the U.S. government's official web portal to all federal, state and local government web resources and services.